Time;durP1;ratioP1;P1;durP2;ratioP2;P2;SDS_P1;SDS_P2;PMS_P1;PMS_P2;Temp;Humidity;BMP_temperature;BMP_pressure;BME280_temperature;BME280_humidity;BME280_pressure;Samples;Min_cycle;Max_cycle;Signal;HPM_P1;HPM_P2
2023/06/30 02:43:38;;;;;;;19.80;11.70;;;;;;;16.45;84.15;98675.56;107643;1305;544837;-48
2023/06/30 02:46:03;;;;;;;26.70;12.30;;;;;;;16.41;84.66;98677.50;107946;1307;22557;-48
2023/06/30 02:48:28;;;;;;;19.60;11.30;;;;;;;16.41;84.05;98678.77;107941;1307;22425;-45
2023/06/30 02:50:54;;;;;;;18.00;10.40;;;;;;;16.40;84.30;98678.59;107925;1307;22253;-49
2023/06/30 02:53:19;;;;;;;15.80;10.30;;;;;;;16.42;83.88;98681.42;107929;1307;22318;-47
2023/06/30 02:55:44;;;;;;;13.50;9.10;;;;;;;16.41;84.45;98679.20;107952;1307;22238;-45
2023/06/30 02:58:10;;;;;;;14.50;8.50;;;;;;;16.42;84.17;98676.36;108058;1304;139071;-47
2023/06/30 03:00:36;;;;;;;12.10;8.60;;;;;;;16.42;84.14;98672.95;108190;1304;22461;-50
2023/06/30 03:03:04;;;;;;;13.70;8.30;;;;;;;16.42;84.17;98673.15;108195;1304;22923;-48
2023/06/30 03:05:29;;;;;;;15.70;7.80;;;;;;;16.41;83.72;98673.39;108189;1304;22320;-45
2023/06/30 03:07:55;;;;;;;11.50;7.40;;;;;;;16.42;83.76;98672.45;108202;1304;22892;-48
2023/06/30 03:10:20;;;;;;;11.70;7.40;;;;;;;16.42;83.88;98671.91;108173;1304;22407;-48
2023/06/30 03:12:45;;;;;;;10.40;7.20;;;;;;;16.41;83.82;98672.50;108184;1304;22254;-47
2023/06/30 03:15:11;;;;;;;9.80;7.10;;;;;;;16.42;83.77;98676.67;108164;1304;22902;-45
2023/06/30 03:17:36;;;;;;;13.60;7.90;;;;;;;16.42;83.62;98674.55;108176;1304;22289;-48
2023/06/30 03:20:09;;;;;;;11.60;6.60;;;;;;;16.43;83.43;98672.15;108190;1304;22229;-50
2023/06/30 03:22:34;;;;;;;18.40;7.10;;;;;;;16.46;83.61;98669.55;108178;1304;22247;-48
2023/06/30 03:25:00;;;;;;;14.50;7.30;;;;;;;16.50;83.83;98667.94;108167;1304;22218;-47
2023/06/30 03:27:25;;;;;;;10.40;7.00;;;;;;;16.52;83.61;98667.46;108191;1304;22238;-49
2023/06/30 03:29:51;;;;;;;11.10;7.30;;;;;;;16.54;82.80;98666.30;108186;1304;22983;-48
2023/06/30 03:32:16;;;;;;;13.00;7.20;;;;;;;16.59;83.06;98667.05;108174;1304;22411;-48
2023/06/30 03:34:41;;;;;;;13.30;6.40;;;;;;;16.62;83.04;98664.93;108204;1304;22319;-48
2023/06/30 03:37:06;;;;;;;13.00;7.30;;;;;;;16.64;82.51;98663.95;108194;1304;22443;-45
2023/06/30 03:39:32;;;;;;;13.00;7.20;;;;;;;16.64;82.70;98660.52;108194;1304;22135;-46
2023/06/30 03:41:57;;;;;;;9.60;6.40;;;;;;;16.67;82.39;98659.55;108158;1304;22220;-45
2023/06/30 03:44:22;;;;;;;8.80;6.30;;;;;;;16.73;82.32;98661.39;108168;1304;22564;-47
2023/06/30 03:46:47;;;;;;;13.20;6.60;;;;;;;16.75;82.20;98662.23;108173;1299;22472;-47
2023/06/30 03:49:13;;;;;;;13.20;7.20;;;;;;;16.79;81.71;98664.73;108195;1301;22294;-44
2023/06/30 03:51:38;;;;;;;9.40;6.60;;;;;;;16.80;81.70;98663.33;108193;1304;22243;-50
2023/06/30 03:54:03;;;;;;;8.90;6.30;;;;;;;16.84;81.41;98661.75;108167;1304;23037;-51
2023/06/30 03:56:29;;;;;;;10.80;6.50;;;;;;;16.88;80.95;98667.73;108158;1304;22910;-50
2023/06/30 03:58:54;;;;;;;11.20;6.50;;;;;;;16.92;80.47;98667.26;108151;1304;22849;-47
2023/06/30 04:01:20;;;;;;;10.10;6.40;;;;;;;16.93;79.87;98670.20;108166;1281;22695;-48
2023/06/30 04:03:45;;;;;;;11.30;6.00;;;;;;;16.96;79.93;98671.01;108168;1305;23286;-46
2023/06/30 04:06:10;;;;;;;8.30;6.50;;;;;;;16.97;79.71;98669.48;108165;1305;22886;-47
2023/06/30 04:08:35;;;;;;;11.10;6.70;;;;;;;16.97;79.65;98669.83;108145;1305;22213;-48
2023/06/30 04:11:01;;;;;;;9.10;6.20;;;;;;;17.01;80.01;98670.69;108156;1305;23243;-48
2023/06/30 04:13:26;;;;;;;11.20;6.00;;;;;;;17.04;80.41;98667.33;108145;1305;23352;-51
2023/06/30 04:15:51;;;;;;;11.40;6.30;;;;;;;17.07;79.96;98670.09;108191;1305;23002;-49
2023/06/30 04:18:17;;;;;;;12.90;5.90;;;;;;;17.11;79.59;98668.17;108163;1305;22235;-49
2023/06/30 04:20:42;;;;;;;13.40;6.10;;;;;;;17.16;79.19;98670.40;108150;1304;22252;-49
2023/06/30 04:23:07;;;;;;;8.90;5.70;;;;;;;17.19;79.28;98672.00;108169;1305;22208;-51
2023/06/30 04:25:33;;;;;;;9.50;5.70;;;;;;;17.22;79.42;98667.31;108160;1305;22249;-47
2023/06/30 04:27:58;;;;;;;13.40;5.70;;;;;;;17.24;79.20;98667.45;108164;1305;22423;-48
2023/06/30 04:30:23;;;;;;;13.70;6.20;;;;;;;17.28;79.69;98662.88;108155;1305;22241;-50
2023/06/30 04:32:48;;;;;;;14.60;6.10;;;;;;;17.31;79.68;98662.23;108119;1294;22318;-51
2023/06/30 04:35:14;;;;;;;7.30;5.40;;;;;;;17.35;79.24;98662.90;108127;1305;22933;-49
2023/06/30 04:37:42;;;;;;;10.70;5.80;;;;;;;17.38;78.45;98662.86;108165;1305;22406;-47
2023/06/30 04:40:08;;;;;;;14.40;6.30;;;;;;;17.43;78.41;98657.75;108163;1305;22235;-50
2023/06/30 04:42:34;;;;;;;6.80;5.40;;;;;;;17.48;78.68;98657.27;108161;1304;22290;-50
2023/06/30 04:44:59;;;;;;;10.70;5.70;;;;;;;17.54;79.05;98660.94;108165;1305;22321;-47
2023/06/30 04:47:24;;;;;;;9.00;5.20;;;;;;;17.61;78.60;98660.30;108157;1305;22254;-46
2023/06/30 04:49:50;;;;;;;6.50;5.00;;;;;;;17.67;78.38;98657.41;108141;1305;22225;-47
2023/06/30 04:52:15;;;;;;;14.30;5.50;;;;;;;17.74;78.53;98655.41;108142;1305;22533;-45
2023/06/30 04:54:41;;;;;;;15.90;6.30;;;;;;;17.79;78.10;98658.11;108152;1304;24252;-45
2023/06/30 04:57:06;;;;;;;7.60;4.80;;;;;;;17.82;78.26;98656.33;108155;1305;23063;-47
2023/06/30 04:59:31;;;;;;;8.30;5.30;;;;;;;17.88;77.98;98654.44;108139;1305;22268;-48
2023/06/30 05:01:57;;;;;;;9.20;5.20;;;;;;;17.94;77.67;98650.52;108155;1304;22311;-48
2023/06/30 05:04:22;;;;;;;10.10;4.70;;;;;;;17.98;77.28;98648.98;108146;1305;22214;-46
2023/06/30 05:06:47;;;;;;;9.30;5.10;;;;;;;18.05;77.04;98651.20;108135;1305;22232;-46
2023/06/30 05:09:13;;;;;;;9.30;4.60;;;;;;;18.10;76.19;98650.17;108142;1305;22453;-46
2023/06/30 05:11:38;;;;;;;11.20;4.70;;;;;;;18.16;75.92;98651.55;108160;1305;23213;-49
2023/06/30 05:14:03;;;;;;;6.30;4.30;;;;;;;18.22;75.27;98655.64;108156;1305;22717;-45
2023/06/30 05:16:28;;;;;;;8.10;4.90;;;;;;;18.28;74.83;98656.47;108171;1305;22226;-47
2023/06/30 05:18:54;;;;;;;7.90;5.00;;;;;;;18.34;74.55;98650.31;108141;1305;22256;-50
2023/06/30 05:21:19;;;;;;;7.10;5.30;;;;;;;18.41;74.66;98652.85;108160;1305;22964;-49
2023/06/30 05:23:44;;;;;;;6.60;4.50;;;;;;;18.49;74.55;98650.48;108175;1304;22215;-46
2023/06/30 05:26:10;;;;;;;6.80;4.20;;;;;;;18.57;74.22;98650.94;108176;1305;22245;-48
2023/06/30 05:28:36;;;;;;;6.30;4.30;;;;;;;18.64;73.40;98645.98;108169;1305;22258;-52
2023/06/30 05:31:02;;;;;;;8.60;4.40;;;;;;;18.71;73.65;98645.67;108168;1305;22288;-48
2023/06/30 05:33:27;;;;;;;8.30;4.30;;;;;;;18.80;73.81;98643.69;108201;1305;22952;-50
2023/06/30 05:35:53;;;;;;;12.40;4.60;;;;;;;18.89;73.20;98644.44;108139;1305;22190;-51
2023/06/30 05:38:18;;;;;;;8.10;3.60;;;;;;;18.96;73.25;98643.66;108165;1305;22397;-46
2023/06/30 05:40:43;;;;;;;6.10;3.70;;;;;;;19.04;72.23;98646.33;108167;1305;23325;-51
2023/06/30 05:43:09;;;;;;;6.50;3.70;;;;;;;19.12;71.41;98646.05;108140;1295;22225;-48
2023/06/30 05:45:35;;;;;;;5.90;3.70;;;;;;;19.19;71.21;98653.47;108148;1305;22279;-48
2023/06/30 05:48:00;;;;;;;10.80;4.00;;;;;;;19.27;71.80;98653.53;108173;1305;22330;-47
2023/06/30 05:50:27;;;;;;;8.80;3.90;;;;;;;19.36;71.57;98649.09;108152;1305;22912;-47
2023/06/30 05:52:53;;;;;;;10.70;3.60;;;;;;;19.43;70.35;98647.99;108151;1305;22908;-49
2023/06/30 05:55:18;;;;;;;5.40;3.10;;;;;;;19.51;70.16;98653.61;108153;1305;22228;-49
2023/06/30 05:57:43;;;;;;;7.30;3.60;;;;;;;19.60;70.20;98655.08;108154;1305;22328;-46
2023/06/30 06:00:09;;;;;;;4.70;3.60;;;;;;;19.64;68.84;98655.02;108148;1305;22964;-46
2023/06/30 06:02:34;;;;;;;4.90;3.60;;;;;;;19.71;69.43;98654.27;108151;1305;22841;-49
2023/06/30 06:04:59;;;;;;;8.60;3.50;;;;;;;19.77;69.16;98650.76;108162;1305;22575;-48
2023/06/30 06:07:25;;;;;;;7.20;4.10;;;;;;;19.83;68.93;98650.68;108161;1305;22232;-47
2023/06/30 06:09:50;;;;;;;12.40;3.80;;;;;;;19.93;69.35;98655.92;108150;1305;22232;-48
2023/06/30 06:12:15;;;;;;;6.20;3.50;;;;;;;20.06;69.45;98655.79;108147;1305;22245;-51
2023/06/30 06:14:41;;;;;;;8.10;3.50;;;;;;;20.23;69.03;98658.47;108151;1305;22310;-50
2023/06/30 06:17:07;;;;;;;5.30;3.10;;;;;;;20.36;67.09;98656.34;108170;1305;23099;-48
2023/06/30 06:19:32;;;;;;;6.80;3.60;;;;;;;20.53;66.60;98658.14;108141;1305;22168;-51
2023/06/30 06:21:57;;;;;;;7.10;3.50;;;;;;;20.68;66.07;98656.60;108156;1305;22335;-49
2023/06/30 06:24:23;;;;;;;3.60;2.60;;;;;;;20.85;66.97;98650.61;108171;1305;22239;-50
2023/06/30 06:26:48;;;;;;;4.20;2.90;;;;;;;21.02;66.65;98652.38;108152;1305;22361;-49
2023/06/30 06:29:18;;;;;;;10.20;3.20;;;;;;;21.12;64.73;98652.52;108153;1305;23226;-50
2023/06/30 06:31:45;;;;;;;8.20;2.70;;;;;;;21.21;64.88;98648.30;108153;1305;22284;-46
2023/06/30 06:34:10;;;;;;;10.30;3.00;;;;;;;21.30;65.72;98648.08;108158;1305;22407;-49
2023/06/30 06:36:37;;;;;;;3.70;3.20;;;;;;;21.38;65.02;98648.94;108143;1305;22288;-45
2023/06/30 06:39:02;;;;;;;7.70;3.30;;;;;;;21.46;63.76;98655.52;108175;1305;22241;-47
2023/06/30 06:41:27;;;;;;;3.40;3.10;;;;;;;21.54;63.35;98658.34;108173;1305;22286;-47
2023/06/30 06:43:53;;;;;;;7.20;3.00;;;;;;;21.62;63.06;98660.46;108172;1305;22304;-51
2023/06/30 06:46:18;;;;;;;6.20;2.60;;;;;;;21.69;62.56;98661.03;108165;1305;23162;-47
2023/06/30 06:48:43;;;;;;;3.10;2.60;;;;;;;21.76;61.95;98662.09;108183;1305;22281;-48
2023/06/30 06:51:08;;;;;;;7.00;3.00;;;;;;;21.85;62.60;98661.46;108164;1305;22218;-50
2023/06/30 06:53:34;;;;;;;4.30;2.80;;;;;;;21.93;62.57;98660.49;108158;1305;22914;-52
2023/06/30 06:56:01;;;;;;;11.50;2.60;;;;;;;22.02;62.41;98660.69;108174;1305;22460;-51
2023/06/30 06:58:30;;;;;;;8.00;3.00;;;;;;;22.11;62.18;98660.98;108152;1305;22219;-53
2023/06/30 07:00:55;;;;;;;6.40;2.80;;;;;;;22.19;62.27;98661.83;108190;1305;23094;-50
2023/06/30 07:03:21;;;;;;;7.60;2.70;;;;;;;22.25;61.05;98661.44;108168;1305;22205;-50
2023/06/30 07:05:47;;;;;;;6.00;2.70;;;;;;;22.26;60.20;98659.83;108160;1305;22197;-48
2023/06/30 07:08:15;;;;;;;8.00;3.10;;;;;;;22.33;60.44;98660.51;108152;1305;22262;-49
2023/06/30 07:10:41;;;;;;;4.50;2.50;;;;;;;22.42;60.37;98660.73;108156;1305;22223;-47
2023/06/30 07:13:06;;;;;;;9.20;3.00;;;;;;;22.46;58.95;98659.50;108179;1305;22824;-48
2023/06/30 07:15:33;;;;;;;8.10;2.80;;;;;;;22.51;59.48;98661.45;108149;1305;22225;-49
2023/06/30 07:17:58;;;;;;;5.90;2.60;;;;;;;22.57;60.63;98661.27;108156;1305;23016;-53
2023/06/30 07:20:24;;;;;;;4.80;2.80;;;;;;;22.64;61.25;98663.34;108131;1305;22993;-52
2023/06/30 07:22:50;;;;;;;6.70;2.70;;;;;;;22.68;60.38;98663.45;108150;1305;22259;-50
2023/06/30 07:25:15;;;;;;;5.70;2.40;;;;;;;22.73;59.74;98660.39;108169;1305;22452;-48
2023/06/30 07:27:49;;;;;;;5.70;2.40;;;;;;;22.80;59.79;98655.75;108137;1305;22243;-51
2023/06/30 07:30:14;;;;;;;7.90;2.60;;;;;;;22.88;59.19;98653.45;108163;1305;22220;-51
2023/06/30 07:32:41;;;;;;;7.00;2.30;;;;;;;22.96;58.82;98650.38;108163;1305;22234;-52
2023/06/30 07:35:07;;;;;;;2.90;2.20;;;;;;;23.06;58.58;98648.14;108157;1305;22401;-51
2023/06/30 07:37:32;;;;;;;4.40;2.50;;;;;;;23.16;57.80;98648.18;108142;1298;22233;-52
2023/06/30 07:39:57;;;;;;;3.30;2.40;;;;;;;23.23;57.02;98644.01;108133;1305;22889;-49
2023/06/30 07:42:22;;;;;;;5.50;2.80;;;;;;;23.31;56.67;98638.40;108152;1305;22221;-49
2023/06/30 07:44:49;;;;;;;6.20;2.80;;;;;;;23.42;55.63;98639.50;108177;1305;22878;-46
2023/06/30 07:47:15;;;;;;;6.30;2.60;;;;;;;23.47;53.60;98640.02;108187;1305;23289;-51
2023/06/30 07:49:41;;;;;;;4.90;2.70;;;;;;;23.48;52.29;98642.52;108145;1299;23214;-49
2023/06/30 07:52:06;;;;;;;6.20;2.60;;;;;;;23.51;53.20;98639.44;108150;1298;22483;-52
2023/06/30 07:54:32;;;;;;;11.20;2.10;;;;;;;23.56;53.59;98641.32;108144;1305;22219;-48
2023/06/30 07:56:57;;;;;;;4.50;1.70;;;;;;;23.63;52.81;98638.41;108140;1305;22452;-48
2023/06/30 07:59:22;;;;;;;7.00;2.10;;;;;;;23.73;53.11;98635.36;108078;1305;22301;-47
2023/06/30 08:01:48;;;;;;;2.00;1.80;;;;;;;23.83;51.96;98628.09;108167;1305;22211;-46
2023/06/30 08:04:13;;;;;;;6.80;1.90;;;;;;;23.92;52.21;98629.64;108114;1305;22232;-50
2023/06/30 08:06:38;;;;;;;5.60;1.90;;;;;;;23.97;50.50;98621.95;108125;1305;22252;-50
2023/06/30 08:09:03;;;;;;;4.10;1.80;;;;;;;24.08;50.75;98624.16;108102;1305;23107;-51
2023/06/30 08:11:30;;;;;;;7.00;2.30;;;;;;;24.18;50.28;98625.35;108160;1305;22207;-49
2023/06/30 08:13:56;;;;;;;2.80;1.80;;;;;;;24.28;49.75;98623.29;108154;1305;22154;-46
2023/06/30 08:16:22;;;;;;;7.10;1.70;;;;;;;24.44;50.28;98621.73;108183;1305;22198;-46
2023/06/30 08:18:48;;;;;;;3.00;1.80;;;;;;;24.61;50.29;98619.57;108160;1302;23215;-50
2023/06/30 08:21:13;;;;;;;3.60;1.70;;;;;;;24.74;48.89;98620.64;108103;1304;22537;-49
2023/06/30 08:23:38;;;;;;;3.60;1.90;;;;;;;24.79;47.65;98618.54;108136;1304;22293;-47
2023/06/30 08:26:04;;;;;;;3.80;2.00;;;;;;;24.86;47.87;98615.73;108134;1304;22242;-48
2023/06/30 08:28:30;;;;;;;7.30;1.90;;;;;;;24.92;47.61;98613.40;108177;1305;22459;-49
2023/06/30 08:30:55;;;;;;;4.40;1.80;;;;;;;24.92;46.99;98615.75;108173;1298;22905;-51
2023/06/30 08:33:30;;;;;;;5.50;1.90;;;;;;;24.94;46.82;98611.91;108176;1304;22252;-51
2023/06/30 08:35:56;;;;;;;5.30;2.00;;;;;;;25.04;47.72;98606.05;108158;1298;22208;-46
2023/06/30 08:38:21;;;;;;;4.90;2.10;;;;;;;25.14;47.04;98600.41;108124;1295;22200;-43
2023/06/30 08:40:47;;;;;;;3.70;2.00;;;;;;;25.21;45.57;98600.73;108118;1305;23482;-44
2023/06/30 08:43:12;;;;;;;6.00;2.00;;;;;;;25.31;46.10;98601.89;108138;1305;23267;-44
2023/06/30 08:45:47;;;;;;;4.40;2.00;;;;;;;25.43;46.76;98605.23;108185;1305;22241;-44
2023/06/30 08:48:15;;;;;;;4.40;1.50;;;;;;;25.55;45.82;98607.55;108158;1302;22226;-45
2023/06/30 08:50:42;;;;;;;3.20;1.90;;;;;;;25.63;44.36;98607.46;108149;1301;22240;-44
2023/06/30 08:53:07;;;;;;;3.00;1.30;;;;;;;25.69;44.41;98604.23;108188;1305;22303;-46
2023/06/30 08:55:33;;;;;;;3.30;1.60;;;;;;;25.65;42.77;98605.73;108163;1305;22190;-47
2023/06/30 08:57:58;;;;;;;4.20;1.70;;;;;;;25.65;43.38;98610.84;108185;1305;22231;-48
2023/06/30 09:00:25;;;;;;;6.50;2.00;;;;;;;25.71;43.87;98608.63;108156;1305;22694;-50
2023/06/30 09:02:53;;;;;;;6.30;1.70;;;;;;;25.76;44.38;98609.06;108157;1305;22195;-51
2023/06/30 09:05:20;;;;;;;4.00;1.90;;;;;;;25.76;43.63;98612.05;108146;1305;22248;-50
2023/06/30 09:07:46;;;;;;;;;;;;;;;25.72;44.08;98613.73;108228;1305;22724;-49
2023/06/30 09:10:12;;;;;;;4.40;1.90;;;;;;;25.77;43.47;98611.27;108199;1305;22239;-50
2023/06/30 09:12:39;;;;;;;6.30;1.80;;;;;;;26.11;43.97;98620.77;108154;1305;22242;-47
2023/06/30 09:15:09;;;;;;;5.50;1.90;;;;;;;26.32;42.72;98620.88;108191;1305;22390;-49
2023/06/30 09:17:34;;;;;;;3.90;1.90;;;;;;;26.43;43.19;98619.13;108168;1305;22253;-47
2023/06/30 09:20:00;;;;;;;5.10;1.70;;;;;;;26.56;43.25;98619.83;108154;1304;22405;-48
2023/06/30 09:22:25;;;;;;;6.70;2.20;;;;;;;26.62;42.61;98616.48;108182;1305;22205;-48
2023/06/30 09:24:51;;;;;;;7.10;2.00;;;;;;;26.74;42.63;98611.80;108179;1305;22263;-47
2023/06/30 09:27:17;;;;;;;2.50;1.60;;;;;;;27.15;42.86;98606.20;108173;1305;22261;-48
2023/06/30 09:29:48;;;;;;;5.80;2.40;;;;;;;27.49;41.38;98606.97;108152;1305;22221;-50
2023/06/30 09:32:14;;;;;;;5.90;1.90;;;;;;;27.82;39.55;98607.09;108200;1305;22398;-50
2023/06/30 09:34:40;;;;;;;4.80;1.60;;;;;;;28.21;38.76;98609.33;108161;1305;22099;-52
2023/06/30 09:37:05;;;;;;;5.10;1.60;;;;;;;28.37;37.67;98606.44;108142;1289;22372;-47
2023/06/30 09:39:31;;;;;;;6.20;2.10;;;;;;;28.39;36.90;98607.77;108097;1306;22642;-51
2023/06/30 09:41:56;;;;;;;4.60;1.90;;;;;;;28.63;36.18;98605.02;108120;1305;22242;-49
2023/06/30 09:44:22;;;;;;;5.70;1.90;;;;;;;29.05;36.38;98599.02;108171;1305;23425;-49
2023/06/30 09:46:49;;;;;;;3.00;1.80;;;;;;;29.43;35.45;98599.42;108164;1305;22281;-48
2023/06/30 09:49:32;;;;;;;3.50;1.70;;;;;;;29.73;35.78;98604.65;108193;1305;22286;-50
2023/06/30 09:52:05;;;;;;;2.30;1.60;;;;;;;30.16;33.36;98603.14;108197;1298;22258;-49
2023/06/30 09:54:30;;;;;;;4.70;1.70;;;;;;;30.76;32.73;98601.20;108149;1305;22358;-48
2023/06/30 09:57:05;;;;;;;5.40;1.80;;;;;;;31.20;32.78;98597.84;107985;1305;22269;-50
2023/06/30 09:59:31;;;;;;;3.70;1.90;;;;;;;31.55;31.24;98593.77;108162;1305;22243;-51
2023/06/30 10:01:58;;;;;;;2.90;2.00;;;;;;;32.02;31.04;98600.23;108162;1305;22405;-52
2023/06/30 10:04:25;;;;;;;3.10;1.80;;;;;;;32.41;30.18;98596.88;108154;1301;22397;-49
2023/06/30 10:06:52;;;;;;;3.90;1.60;;;;;;;32.78;29.35;98594.77;108195;1298;22307;-52
2023/06/30 10:09:22;;;;;;;2.40;1.70;;;;;;;33.13;28.56;98590.51;108196;1305;22265;-51
2023/06/30 10:11:55;;;;;;;2.90;1.60;;;;;;;33.39;28.02;98594.66;108166;1305;22280;-51
2023/06/30 10:14:27;;;;;;;4.70;1.60;;;;;;;33.60;28.28;98594.09;108171;1305;22227;-52
2023/06/30 10:16:55;;;;;;;6.60;1.50;;;;;;;33.62;28.39;98592.91;108204;1305;22221;-52
2023/06/30 10:19:21;;;;;;;3.70;1.50;;;;;;;33.82;27.98;98592.52;108171;1305;22751;-52
2023/06/30 10:21:47;;;;;;;5.20;1.80;;;;;;;33.97;27.28;98585.73;108113;1291;22514;-50
2023/06/30 10:24:13;;;;;;;3.90;1.60;;;;;;;33.90;26.91;98585.65;108121;1298;22876;-50
2023/06/30 10:26:39;;;;;;;4.40;1.80;;;;;;;33.92;27.69;98582.23;108177;1301;23006;-49
2023/06/30 10:29:04;;;;;;;3.60;1.80;;;;;;;33.57;28.27;98578.77;108171;1299;22238;-50
2023/06/30 10:31:31;;;;;;;1.70;1.30;;;;;;;32.71;28.65;98577.98;108137;1297;22366;-51
2023/06/30 10:33:57;;;;;;;2.10;1.70;;;;;;;31.98;29.29;98575.14;108117;1293;22222;-51
2023/06/30 10:36:24;;;;;;;2.10;1.50;;;;;;;31.58;29.91;98572.03;108155;1298;22510;-50
2023/06/30 10:38:50;;;;;;;5.20;1.80;;;;;;;30.85;30.55;98571.77;108156;1298;22465;-51
2023/06/30 10:41:19;;;;;;;6.20;2.00;;;;;;;30.35;31.88;98572.86;108136;1301;22268;-49
2023/06/30 10:44:02;;;;;;;2.90;1.70;;;;;;;30.07;32.29;98569.48;108148;1298;23235;-50
2023/06/30 10:46:45;;;;;;;3.10;2.00;;;;;;;29.87;32.83;98565.23;108137;1305;23222;-47
2023/06/30 10:49:26;;;;;;;7.50;1.80;;;;;;;29.61;33.56;98565.19;108126;1301;23072;-50
2023/06/30 10:51:52;;;;;;;3.10;1.80;;;;;;;29.33;34.26;98556.11;108136;1298;22401;-50
2023/06/30 10:54:28;;;;;;;2.00;1.80;;;;;;;29.16;34.21;98551.55;108129;1298;22247;-50
2023/06/30 10:57:04;;;;;;;4.10;2.20;;;;;;;29.11;35.04;98548.43;108135;1305;23001;-49
2023/06/30 10:59:36;;;;;;;9.50;2.40;;;;;;;29.25;34.65;98549.02;108098;1301;23081;-48
2023/06/30 11:02:13;;;;;;;4.70;1.70;;;;;;;29.33;35.27;98544.52;108109;1304;22317;-50
2023/06/30 11:04:43;;;;;;;4.10;1.80;;;;;;;29.57;34.73;98550.27;108172;1305;22316;-48
2023/06/30 11:07:10;;;;;;;2.30;1.90;;;;;;;29.74;34.34;98551.95;108157;1304;22231;-49
2023/06/30 11:09:48;;;;;;;3.40;1.90;;;;;;;29.74;33.69;98540.95;108142;1301;22377;-50
2023/06/30 11:12:18;;;;;;;4.10;1.80;;;;;;;30.03;34.05;98536.39;108146;1304;22293;-52
2023/06/30 11:15:03;;;;;;;4.40;1.80;;;;;;;30.55;33.82;98539.61;108174;1305;22440;-52
2023/06/30 11:17:50;;;;;;;2.20;1.70;;;;;;;30.64;32.64;98534.63;108141;1304;22219;-52
2023/06/30 11:20:15;;;;;;;6.10;1.60;;;;;;;30.53;32.76;98530.73;108132;1298;22396;-51
2023/06/30 11:22:41;;;;;;;2.60;1.50;;;;;;;30.41;32.83;98535.09;108128;1298;22225;-51
2023/06/30 11:25:11;;;;;;;3.10;1.60;;;;;;;30.29;32.49;98530.34;108164;1305;22424;-46
2023/06/30 11:27:38;;;;;;;1.90;1.80;;;;;;;30.03;32.94;98528.48;108139;1298;22974;-50
2023/06/30 11:30:04;;;;;;;2.90;1.40;;;;;;;29.96;33.50;98526.39;108111;1298;22244;-50
2023/06/30 11:32:31;;;;;;;4.50;1.80;;;;;;;29.72;33.64;98525.66;108104;1297;22384;-46
2023/06/30 11:34:58;;;;;;;2.10;1.90;;;;;;;29.56;34.08;98522.48;108148;1305;22193;-48
2023/06/30 11:37:26;;;;;;;4.00;1.50;;;;;;;29.51;34.65;98522.62;108169;1305;22190;-52
2023/06/30 11:40:00;;;;;;;3.50;1.80;;;;;;;29.43;34.58;98521.59;108123;1305;23060;-50
2023/06/30 11:42:26;;;;;;;7.40;2.10;;;;;;;29.21;34.89;98519.02;108126;1298;22423;-51
2023/06/30 11:44:51;;;;;;;8.80;1.70;;;;;;;29.03;35.09;98517.73;108100;1298;22369;-51
2023/06/30 11:47:18;;;;;;;2.30;2.00;;;;;;;28.90;35.31;98516.91;108097;1298;22225;-52
2023/06/30 11:49:45;;;;;;;4.30;1.60;;;;;;;28.77;35.60;98512.29;108111;1298;22222;-49
2023/06/30 11:52:11;;;;;;;6.60;2.10;;;;;;;28.62;35.62;98510.80;108129;1301;22240;-50
2023/06/30 11:54:36;;;;;;;3.30;2.10;;;;;;;28.48;36.13;98508.28;108071;1304;22220;-50
2023/06/30 11:57:04;;;;;;;3.10;2.00;;;;;;;28.30;36.46;98503.08;108142;1298;22251;-52
2023/06/30 11:59:32;;;;;;;5.80;2.30;;;;;;;28.24;36.53;98502.04;108148;1298;22424;-51
2023/06/30 12:02:00;;;;;;;2.80;2.00;;;;;;;28.20;36.54;98503.93;108076;1305;22305;-52
2023/06/30 12:04:34;;;;;;;3.90;2.20;;;;;;;28.14;36.96;98498.88;108134;1305;22583;-50
2023/06/30 12:07:01;;;;;;;5.00;2.10;;;;;;;28.11;37.12;98495.48;108120;1298;22314;-49
2023/06/30 12:09:26;;;;;;;3.30;1.80;;;;;;;28.09;37.11;98493.62;108142;1301;22328;-49
2023/06/30 12:11:52;;;;;;;3.90;1.70;;;;;;;28.11;37.04;98491.98;108151;1304;22934;-48
2023/06/30 12:14:21;;;;;;;2.80;1.90;;;;;;;28.19;36.37;98491.14;108172;1298;22483;-49
2023/06/30 12:16:48;;;;;;;7.70;1.80;;;;;;;28.27;36.71;98491.59;108123;1298;22405;-51
2023/06/30 12:19:14;;;;;;;4.10;2.00;;;;;;;28.34;36.70;98492.02;108146;1304;22223;-49
2023/06/30 12:21:56;;;;;;;3.20;1.80;;;;;;;28.44;36.23;98492.04;108156;1298;22420;-47
2023/06/30 12:24:22;;;;;;;1.80;1.70;;;;;;;28.40;36.01;98488.25;108152;1298;22807;-49
2023/06/30 12:26:49;;;;;;;3.40;2.00;;;;;;;28.44;36.15;98489.98;108159;1305;22248;-50
2023/06/30 12:29:16;;;;;;;;;;;;;;;28.46;36.62;98488.69;108154;1298;22516;-51
2023/06/30 12:31:41;;;;;;;3.30;2.60;;;;;;;28.38;36.43;98493.84;108144;1301;22244;-51
2023/06/30 12:34:07;;;;;;;2.90;1.90;;;;;;;28.43;36.35;98493.80;108115;1305;22339;-49
2023/06/30 12:36:32;;;;;;;6.90;2.00;;;;;;;28.45;36.11;98487.58;108128;1298;22243;-49
2023/06/30 12:38:58;;;;;;;4.60;2.00;;;;;;;28.47;36.03;98485.86;108115;1297;22223;-50
2023/06/30 12:41:23;;;;;;;5.80;1.70;;;;;;;28.55;36.62;98485.41;108138;1298;22457;-51
2023/06/30 12:43:48;;;;;;;5.40;1.50;;;;;;;28.55;36.26;98479.44;108137;1298;22246;-48
2023/06/30 12:46:14;;;;;;;2.90;2.00;;;;;;;28.33;36.09;98479.89;108139;1305;22178;-51
2023/06/30 12:48:40;;;;;;;3.60;1.70;;;;;;;28.27;36.54;98474.86;108134;1298;22295;-50
2023/06/30 12:51:07;;;;;;;5.30;1.70;;;;;;;28.31;36.97;98471.21;108159;1305;22236;-48
2023/06/30 12:53:32;;;;;;;3.70;1.70;;;;;;;28.18;36.83;98466.86;108152;1305;22302;-48
2023/06/30 12:55:57;;;;;;;2.70;1.80;;;;;;;28.18;37.03;98469.81;108152;1304;22227;-49
2023/06/30 12:58:23;;;;;;;6.20;1.90;;;;;;;28.17;36.97;98469.36;108142;1305;22677;-49
2023/06/30 13:00:48;;;;;;;4.00;1.90;;;;;;;28.17;37.29;98466.78;108139;1305;22244;-48
2023/06/30 13:03:13;;;;;;;3.50;1.80;;;;;;;28.23;37.15;98469.66;108160;1304;22408;-47
2023/06/30 13:05:40;;;;;;;1.70;1.50;;;;;;;28.30;37.19;98468.77;108153;1299;23370;-51
2023/06/30 13:08:05;;;;;;;2.00;1.90;;;;;;;28.35;37.37;98463.32;108134;1305;22722;-50
2023/06/30 13:10:30;;;;;;;3.20;1.60;;;;;;;28.43;37.21;98462.52;108146;1305;22336;-50
2023/06/30 13:12:56;;;;;;;2.30;1.80;;;;;;;28.49;36.90;98454.44;108161;1298;22216;-52
2023/06/30 13:15:22;;;;;;;1.70;1.60;;;;;;;28.49;36.81;98459.42;108195;1305;24257;-49
2023/06/30 13:17:47;;;;;;;2.70;1.80;;;;;;;28.46;36.42;98463.91;108191;1298;23597;-52
2023/06/30 13:20:13;;;;;;;6.60;2.00;;;;;;;28.46;36.57;98452.95;108175;1305;22116;-50
2023/06/30 13:22:38;;;;;;;4.60;2.00;;;;;;;28.43;36.69;98453.23;108154;1305;22433;-48
2023/06/30 13:25:04;;;;;;;2.50;1.70;;;;;;;28.47;36.97;98457.45;108155;1305;22276;-50
2023/06/30 13:27:30;;;;;;;2.30;1.60;;;;;;;28.39;36.65;98456.63;108124;1304;22259;-51
2023/06/30 13:29:56;;;;;;;2.20;1.70;;;;;;;28.31;37.16;98454.66;108154;1305;22307;-48
2023/06/30 13:32:22;;;;;;;6.00;1.70;;;;;;;28.20;37.24;98451.70;108109;1305;23168;-51
2023/06/30 13:34:48;;;;;;;2.80;2.40;;;;;;;28.09;37.20;98449.63;108044;1292;22231;-50
2023/06/30 13:37:14;;;;;;;2.70;1.80;;;;;;;27.90;37.45;98446.58;108175;1305;22315;-51
2023/06/30 13:39:39;;;;;;;3.80;1.70;;;;;;;27.72;37.66;98442.93;108076;1291;22322;-49
2023/06/30 13:42:07;;;;;;;4.40;1.90;;;;;;;27.58;38.02;98441.63;108150;1298;22264;-52
2023/06/30 13:44:33;;;;;;;4.30;1.60;;;;;;;27.45;38.66;98439.20;108170;1298;22227;-49
2023/06/30 13:46:58;;;;;;;5.70;2.20;;;;;;;27.41;39.04;98434.57;108209;1305;23123;-51
2023/06/30 13:49:24;;;;;;;6.50;1.80;;;;;;;27.38;39.08;98431.55;108176;1301;22209;-50
2023/06/30 13:51:50;;;;;;;10.80;2.10;;;;;;;27.28;39.63;98434.81;108179;1305;22360;-49
2023/06/30 13:54:15;;;;;;;7.00;2.00;;;;;;;27.17;39.34;98436.87;108163;1305;22227;-50
2023/06/30 13:56:40;;;;;;;3.90;1.80;;;;;;;27.06;39.65;98432.46;108152;1301;23401;-48
2023/06/30 13:59:05;;;;;;;2.80;1.90;;;;;;;26.92;40.31;98427.44;108203;1305;22683;-49
2023/06/30 14:01:31;;;;;;;5.30;2.00;;;;;;;26.85;40.41;98427.95;108180;1305;22206;-47
2023/06/30 14:03:56;;;;;;;7.10;2.00;;;;;;;26.68;40.80;98418.81;108181;1298;22865;-51